Ransom, Illinois
Current Conditions -  °F | °C
As of 5:15 AM on Sunday 23 Nov 2014 (Local Time) from KPNT Reporting Station
Broken Clouds Broken Clouds  
Wind Chill: 43°   Ceiling: 7500
Heat Index: 48°   Visibility: 10mi
Dew Point: 44°   Wind: 13mph
Humidity: 84%   Direction: 160°SSE
Pressure: 29.77"   Gusts: NA
Location:  41.16°N, 88.65°W
Report Text: KPNT 231115Z AUTO 16011KT 10SM SCT055 BKN075 09/07 A2977 RMK AO2 T00900065
Loading
Personal Weather Stations






























Interactive Weather Map New forecast layout! Learn more

10-Day Weather Forecast

Advertisements
Track Severe Weather on mobile